Time;durP1;ratioP1;P1;durP2;ratioP2;P2;SDS_P1;SDS_P2;PMS_P1;PMS_P2;Temp;Humidity;BMP_temperature;BMP_pressure;BME280_temperature;BME280_humidity;BME280_pressure;Samples;Min_cycle;Max_cycle;Signal;HPM_P1;HPM_P2
2021/10/22 00:03:09;;;;;;;;;;;7.40;99.90;;;;;;8322111;28;19932;-73
2021/10/22 00:07:11;;;;;;;;;;;7.40;99.90;;;;;;8329732;28;19924;-73
2021/10/22 00:11:13;;;;;;;;;;;7.40;99.90;;;;;;8327758;28;19975;-73
2021/10/22 00:15:15;;;;;;;;;;;7.30;99.90;;;;;;8331611;28;20400;-73
2021/10/22 00:19:16;;;;;;;;;;;7.30;99.90;;;;;;8346024;28;19943;-73
2021/10/22 00:23:18;;;;;;;;;;;7.30;99.90;;;;;;8320901;28;20009;-73
2021/10/22 00:27:20;;;;;;;;;;;7.30;99.90;;;;;;8323856;28;20287;-73
2021/10/22 00:31:21;;;;;;;;;;;7.30;99.90;;;;;;8334097;28;19925;-73
2021/10/22 00:35:23;;;;;;;;;;;7.30;99.90;;;;;;8329619;28;20437;-73
2021/10/22 00:39:25;;;;;;;;;;;7.20;99.90;;;;;;8325944;28;19925;-72
2021/10/22 00:43:30;;;;;;;;;;;7.10;99.90;;;;;;8322261;28;19924;-73
2021/10/22 00:47:31;;;;;;;;;;;7.10;99.90;;;;;;8357421;28;19997;-72
2021/10/22 00:51:33;;;;;;;;;;;7.00;99.90;;;;;;8324640;28;20060;-72
2021/10/22 00:55:35;;;;;;;;;;;7.00;99.90;;;;;;8328314;28;19928;-73
2021/10/22 00:59:38;;;;;;;;;;;7.00;99.90;;;;;;8330866;28;20340;-73
2021/10/22 01:03:39;;;;;;;;;;;7.00;99.90;;;;;;8324565;28;19922;-73
2021/10/22 01:07:42;;;;;;;;;;;7.00;99.90;;;;;;8352613;28;19929;-72
2021/10/22 01:11:44;;;;;;;9.57;2.22;;;7.00;99.90;;;;;;8321948;28;19920;-73
2021/10/22 01:15:46;;;;;;;8.10;2.10;;;6.90;99.90;;;;;;8329747;28;20053;-73
2021/10/22 01:19:48;;;;;;;11.50;2.45;;;6.80;99.90;;;;;;8319622;28;20398;-74
2021/10/22 01:23:50;;;;;;;5.88;2.00;;;6.70;99.90;;;;;;8323685;28;20050;-72
2021/10/22 01:27:52;;;;;;;9.68;2.45;;;6.70;99.90;;;;;;8316334;28;20378;-73
2021/10/22 01:31:54;;;;;;;10.52;1.95;;;6.60;99.90;;;;;;8336348;28;20062;-73
2021/10/22 01:35:56;;;;;;;9.93;2.70;;;6.60;99.90;;;;;;8330887;28;20060;-73
2021/10/22 01:39:58;;;;;;;7.40;1.95;;;6.60;99.90;;;;;;8320412;28;20052;-74
2021/10/22 01:44:06;;;;;;;11.52;2.13;;;6.70;99.90;;;;;;8322303;28;20481;-73
2021/10/22 01:48:08;;;;;;;9.43;2.50;;;6.60;99.90;;;;;;8312869;28;20061;-73
2021/10/22 01:52:10;;;;;;;8.70;1.83;;;6.60;99.90;;;;;;8330958;28;20535;-73
2021/10/22 01:56:12;;;;;;;8.18;2.17;;;6.70;99.90;;;;;;8322584;28;20104;-74
2021/10/22 02:00:14;;;;;;;8.73;1.70;;;6.70;99.90;;;;;;8329241;28;20045;-73
2021/10/22 02:04:15;;;;;;;6.57;1.60;;;6.70;99.90;;;;;;8329618;28;20555;-73
2021/10/22 02:08:18;;;;;;;7.82;1.60;;;6.60;99.90;;;;;;8315980;28;20410;-73
2021/10/22 02:12:19;;;;;;;7.97;1.60;;;6.60;99.90;;;;;;8325310;28;20050;-74
2021/10/22 02:16:21;;;;;;;13.40;1.73;;;6.70;99.90;;;;;;8338593;28;20045;-73
2021/10/22 02:20:23;;;;;;;8.30;2.03;;;6.70;99.90;;;;;;8320097;28;20141;-73
2021/10/22 02:24:25;;;;;;;6.25;1.60;;;6.70;99.90;;;;;;8338478;28;20041;-73
2021/10/22 02:28:27;;;;;;;8.77;1.40;;;6.70;99.90;;;;;;8323502;28;20056;-73
2021/10/22 02:32:29;;;;;;;14.10;1.67;;;6.80;99.90;;;;;;8333190;28;20125;-73
2021/10/22 02:36:31;;;;;;;7.45;1.65;;;6.90;99.90;;;;;;8315799;28;20042;-73
2021/10/22 02:40:32;;;;;;;8.20;2.17;;;6.90;99.90;;;;;;8324784;28;20037;-74
2021/10/22 02:44:35;;;;;;;9.57;1.80;;;7.00;99.90;;;;;;8324278;28;20045;-73
2021/10/22 02:48:36;;;;;;;9.35;1.50;;;7.00;99.90;;;;;;8320055;28;20072;-73
2021/10/22 02:52:38;;;;;;;7.55;1.40;;;7.00;99.90;;;;;;8331822;28;20053;-73
2021/10/22 02:56:40;;;;;;;7.87;1.80;;;7.00;99.90;;;;;;8335563;28;20049;-73
2021/10/22 03:00:41;;;;;;;;;;;7.00;99.90;;;;;;8356166;28;20288;-73
2021/10/22 03:04:43;;;;;;;;;;;7.00;99.90;;;;;;8334177;28;20395;-73
2021/10/22 03:08:45;;;;;;;;;;;6.90;99.90;;;;;;8326437;28;20020;-73
2021/10/22 03:12:46;;;;;;;;;;;7.00;99.90;;;;;;8327094;28;19921;-73
2021/10/22 03:16:48;;;;;;;;;;;7.00;99.90;;;;;;8334245;28;19925;-72
2021/10/22 03:20:50;;;;;;;;;;;6.90;99.90;;;;;;8319801;28;19962;-73
2021/10/22 03:24:51;;;;;;;;;;;6.90;99.90;;;;;;8340551;28;20380;-73
2021/10/22 03:28:53;;;;;;;;;;;6.90;99.90;;;;;;8321760;28;20365;-73
2021/10/22 03:32:55;;;;;;;;;;;6.80;99.90;;;;;;8348495;28;20357;-73
2021/10/22 03:36:56;;;;;;;;;;;6.80;99.90;;;;;;8326287;28;19936;-73
2021/10/22 03:40:58;;;;;;;;;;;6.80;99.90;;;;;;8334301;28;19925;-73
2021/10/22 03:44:59;;;;;;;;;;;6.80;99.90;;;;;;8325337;28;19921;-73
2021/10/22 03:49:01;;;;;;;;;;;6.90;99.90;;;;;;8330448;28;19928;-73
2021/10/22 03:53:04;;;;;;;;;;;6.90;99.90;;;;;;8330405;28;19921;-73
2021/10/22 03:57:05;;;;;;;;;;;6.90;99.90;;;;;;8334745;28;19920;-72
2021/10/22 04:01:07;;;;;;;;;;;6.90;99.90;;;;;;8327438;28;20316;-73
2021/10/22 04:05:09;;;;;;;;;;;7.00;99.90;;;;;;8326132;28;19925;-73
2021/10/22 04:09:12;;;;;;;;;;;7.10;99.90;;;;;;8352695;28;19921;-73
2021/10/22 04:13:14;;;;;;;;;;;7.10;99.90;;;;;;8322956;28;19921;-73
2021/10/22 04:17:16;;;;;;;;;;;7.20;99.90;;;;;;8330021;28;19921;-73
2021/10/22 04:21:17;;;;;;;;;;;7.30;99.90;;;;;;8361686;28;19929;-73
2021/10/22 04:25:19;;;;;;;;;;;7.40;99.90;;;;;;8329282;28;19947;-73
2021/10/22 04:29:20;;;;;;;;;;;7.50;99.90;;;;;;8331687;28;19932;-73
2021/10/22 04:33:22;;;;;;;;;;;7.60;99.90;;;;;;8325555;28;20359;-72
2021/10/22 04:37:30;;;;;;;;;;;7.70;99.90;;;;;;8324766;28;19921;-72
2021/10/22 04:41:31;;;;;;;;;;;7.80;99.90;;;;;;8330142;28;19925;-73
2021/10/22 04:45:34;;;;;;;;;;;7.90;99.90;;;;;;8318705;28;19924;-73
2021/10/22 04:49:36;;;;;;;;;;;7.90;99.90;;;;;;8325074;28;19960;-72
2021/10/22 04:53:37;;;;;;;;;;;8.00;99.90;;;;;;8321381;28;19926;-72
2021/10/22 04:57:39;;;;;;;;;;;7.90;99.90;;;;;;8329671;28;19928;-73
2021/10/22 05:01:41;;;;;;;;;;;7.90;99.90;;;;;;8320192;28;19929;-72
2021/10/22 05:05:42;;;;;;;;;;;7.90;99.90;;;;;;8299152;28;19967;-72
2021/10/22 05:09:44;;;;;;;;;;;7.80;99.90;;;;;;8315874;28;20966;-73
2021/10/22 05:13:46;;;;;;;;;;;7.80;99.90;;;;;;8335795;28;19921;-73
2021/10/22 05:17:47;;;;;;;;;;;7.70;99.90;;;;;;8326619;28;19925;-73
2021/10/22 05:21:49;;;;;;;;;;;7.60;99.90;;;;;;8321714;28;19932;-73
2021/10/22 05:25:51;;;;;;;;;;;7.60;99.90;;;;;;8342099;28;19974;-73
2021/10/22 05:29:52;;;;;;;;;;;7.60;99.90;;;;;;8330442;28;19975;-73
2021/10/22 05:33:54;;;;;;;;;;;7.50;99.90;;;;;;8328317;28;19921;-73
2021/10/22 05:37:56;;;;;;;;;;;7.60;99.90;;;;;;8328406;28;19974;-73
2021/10/22 05:41:57;;;;;;;;;;;7.60;99.90;;;;;;8333486;28;19976;-73
2021/10/22 05:45:59;;;;;;;;;;;7.60;99.90;;;;;;8323457;28;19933;-72
2021/10/22 05:50:04;;;;;;;;;;;7.70;99.90;;;;;;8342210;28;19965;-73
2021/10/22 05:54:05;;;;;;;;;;;7.70;99.90;;;;;;8330043;28;20000;-73
2021/10/22 05:58:07;;;;;;;;;;;7.80;99.90;;;;;;8327966;28;19921;-72
2021/10/22 06:02:09;;;;;;;;;;;7.80;99.90;;;;;;8325683;28;20652;-73
2021/10/22 06:06:12;;;;;;;;;;;7.90;99.90;;;;;;8330117;28;19921;-73
2021/10/22 06:10:17;;;;;;;;;;;7.90;99.90;;;;;;8326424;28;19925;-73
2021/10/22 06:14:18;;;;;;;;;;;7.90;99.90;;;;;;8332171;28;19920;-72
2021/10/22 06:18:20;;;;;;;;;;;7.90;99.90;;;;;;8330066;28;19940;-74
2021/10/22 06:22:36;;;;;;;;;;;8.00;99.90;;;;;;8326164;28;19925;-73
2021/10/22 06:26:42;;;;;;;;;;;8.10;99.90;;;;;;8324498;28;19921;-73
2021/10/22 06:30:43;;;;;;;;;;;8.20;99.90;;;;;;8322368;28;19925;-73
2021/10/22 06:34:45;;;;;;;;;;;8.30;99.90;;;;;;8326552;28;19992;-73
2021/10/22 06:38:47;;;;;;;;;;;8.40;99.90;;;;;;8320051;28;19921;-73
2021/10/22 06:42:50;;;;;;;;;;;8.40;99.90;;;;;;8335420;28;20353;-73
2021/10/22 06:46:52;;;;;;;;;;;8.30;99.90;;;;;;8321149;28;19920;-73
2021/10/22 06:50:54;;;;;;;;;;;8.30;99.90;;;;;;8322638;28;19936;-72
2021/10/22 06:54:56;;;;;;;;;;;8.20;99.90;;;;;;8318834;28;20593;-73
2021/10/22 06:58:58;;;;;;;;;;;8.20;99.90;;;;;;8335158;28;19946;-73
2021/10/22 07:03:00;;;;;;;;;;;8.10;99.90;;;;;;8325174;28;20009;-73
2021/10/22 07:07:14;;;;;;;;;;;8.10;99.90;;;;;;8320296;28;19960;-72
2021/10/22 07:11:17;;;;;;;;;;;8.10;99.90;;;;;;8334646;28;19983;-73
2021/10/22 07:15:21;;;;;;;;;;;8.20;99.90;;;;;;8333824;28;19924;-72
2021/10/22 07:19:22;;;;;;;;;;;8.30;99.90;;;;;;8327093;28;19925;-73
2021/10/22 07:23:25;;;;;;;;;;;8.30;99.90;;;;;;8325650;28;19921;-73
2021/10/22 07:27:26;;;;;;;;;;;8.40;99.90;;;;;;8325332;28;20040;-72
2021/10/22 07:31:28;;;;;;;;;;;8.50;99.90;;;;;;8317556;28;19928;-72
2021/10/22 07:35:30;;;;;;;;;;;8.50;99.90;;;;;;8322456;28;19924;-72
2021/10/22 07:39:32;;;;;;;;;;;8.60;99.90;;;;;;8318261;28;19920;-72
2021/10/22 07:43:45;;;;;;;12.55;2.47;;;8.70;99.90;;;;;;8318975;28;20146;-73
2021/10/22 07:47:46;;;;;;;6.07;1.58;;;8.90;99.90;;;;;;8354060;28;20041;-73
2021/10/22 07:51:49;;;;;;;6.20;1.50;;;9.20;99.90;;;;;;8357578;28;20042;-73
2021/10/22 07:55:50;;;;;;;8.60;2.00;;;9.40;99.90;;;;;;8330811;28;20049;-73
2021/10/22 07:59:52;;;;;;;9.20;1.88;;;9.50;99.90;;;;;;8359361;28;20056;-73
2021/10/22 08:03:54;;;;;;;11.90;1.77;;;9.60;99.90;;;;;;8324032;28;20057;-73
2021/10/22 08:07:56;;;;;;;;;;;9.70;99.90;;;;;;8330469;28;20045;-73
2021/10/22 08:11:57;;;;;;;;;;;9.80;99.90;;;;;;8326191;28;19925;-73
2021/10/22 08:15:59;;;;;;;;;;;9.90;99.90;;;;;;8317935;28;20021;-73
2021/10/22 08:20:05;;;;;;;;;;;10.10;99.90;;;;;;8329710;28;19924;-72
2021/10/22 08:24:07;;;;;;;;;;;10.30;99.90;;;;;;8331624;28;19967;-73
2021/10/22 08:28:09;;;;;;;12.20;2.55;;;10.40;99.90;;;;;;8323234;28;20793;-73
2021/10/22 08:32:11;;;;;;;8.70;1.88;;;10.40;99.90;;;;;;8348944;28;20084;-73
2021/10/22 08:36:13;;;;;;;9.73;2.15;;;10.40;99.90;;;;;;8315640;28;20037;-73
2021/10/22 08:40:15;;;;;;;;;;;10.40;99.90;;;;;;8332446;28;20349;-73
2021/10/22 08:44:17;;;;;;;;;;;10.40;99.90;;;;;;8337149;28;20280;-73
2021/10/22 08:48:19;;;;;;;;;;;10.50;99.90;;;;;;8329610;28;19920;-73
2021/10/22 08:52:20;;;;;;;;;;;10.50;99.90;;;;;;8326068;28;20311;-73
2021/10/22 08:56:22;;;;;;;;;;;10.60;99.90;;;;;;8335907;28;19921;-73
2021/10/22 09:00:24;;;;;;;8.35;1.75;;;10.70;99.90;;;;;;8322924;28;19921;-73
2021/10/22 09:04:33;;;;;;;9.35;1.85;;;10.80;99.90;;;;;;8339015;28;20045;-73
2021/10/22 09:08:37;;;;;;;9.20;1.77;;;10.80;99.90;;;;;;8333692;28;20095;-73
2021/10/22 09:12:54;;;;;;;8.75;2.20;;;10.90;99.90;;;;;;8324810;28;20096;-73
2021/10/22 09:16:56;;;;;;;7.30;1.88;;;10.80;99.90;;;;;;8328740;28;20045;-73
2021/10/22 09:21:00;;;;;;;7.72;2.33;;;10.80;99.90;;;;;;8329344;28;20041;-73
2021/10/22 09:25:09;;;;;;;7.95;1.63;;;10.90;99.90;;;;;;8317050;28;20048;-73
2021/10/22 09:29:22;;;;;;;12.57;2.10;;;11.00;99.90;;;;;;8328312;28;20396;-73
2021/10/22 09:33:25;;;;;;;12.18;2.65;;;11.20;99.90;;;;;;8324474;28;20056;-72
2021/10/22 09:37:38;;;;;;;11.07;2.00;;;11.30;99.90;;;;;;8327124;28;20152;-73
2021/10/22 09:42:01;;;;;;;10.88;1.67;;;11.30;99.90;;;;;;8325408;28;20045;-73
2021/10/22 09:46:18;;;;;;;7.13;1.67;;;11.20;99.90;;;;;;8324356;28;20041;-74
2021/10/22 09:50:26;;;;;;;9.40;1.87;;;11.20;99.90;;;;;;8330611;28;20049;-73
2021/10/22 09:54:30;;;;;;;10.00;1.95;;;11.10;99.90;;;;;;8324317;28;20308;-73
2021/10/22 09:58:36;;;;;;;8.48;1.70;;;11.00;99.90;;;;;;8316062;28;20053;-73
2021/10/22 10:02:41;;;;;;;;;;;10.90;99.90;;;;;;8343532;28;20054;-72
2021/10/22 10:06:44;;;;;;;;;;;10.80;99.90;;;;;;8326734;28;20285;-73
2021/10/22 10:10:45;;;;;;;;;;;10.70;99.90;;;;;;8335363;28;20357;-72
2021/10/22 10:14:47;;;;;;;;;;;10.60;99.90;;;;;;8334694;28;19921;-73
2021/10/22 10:18:53;;;;;;;;;;;10.50;99.90;;;;;;8327952;28;19920;-73
2021/10/22 10:22:56;;;;;;;;;;;10.50;99.90;;;;;;8323573;28;19928;-72
2021/10/22 10:27:05;;;;;;;;;;;10.60;99.90;;;;;;8311785;28;19975;-73
2021/10/22 10:31:37;;;;;;;;;;;10.80;99.90;;;;;;8324217;28;19959;-72
2021/10/22 10:35:42;;;;;;;;;;;10.90;99.90;;;;;;8331513;28;19946;-72
2021/10/22 10:39:44;;;;;;;;;;;10.90;99.90;;;;;;8327206;28;19921;-73
2021/10/22 10:43:46;;;;;;;;;;;10.90;99.90;;;;;;8336480;28;20281;-72
2021/10/22 10:47:49;;;;;;;;;;;11.00;99.90;;;;;;8331505;28;19920;-73
2021/10/22 10:51:50;;;;;;;;;;;11.10;99.90;;;;;;8331638;28;19921;-72
2021/10/22 10:55:54;;;;;;;7.15;1.50;;;11.20;99.90;;;;;;8330319;28;19929;-72
2021/10/22 11:00:10;;;;;;;10.32;1.90;;;11.50;99.90;;;;;;8343431;28;20040;-73
2021/10/22 11:04:12;;;;;;;;;;;11.80;99.90;;;;;;8337159;28;20045;-72
2021/10/22 11:08:21;;;;;;;;;;;12.00;99.90;;;;;;8340139;28;19931;-72
2021/10/22 11:12:23;;;;;;;;;;;12.10;99.90;;;;;;8330591;28;19921;-73
2021/10/22 11:16:43;;;;;;;;;;;12.00;99.90;;;;;;8344431;28;20372;-73
2021/10/22 11:20:46;;;;;;;;;;;12.00;99.90;;;;;;8340497;28;20344;-73
2021/10/22 11:24:48;;;;;;;;;;;11.80;99.90;;;;;;8352181;28;19927;-72
2021/10/22 11:28:51;;;;;;;;;;;11.60;99.90;;;;;;8350316;28;19921;-73
2021/10/22 11:32:53;;;;;;;;;;;11.60;99.90;;;;;;8353759;28;19924;-73
2021/10/22 11:37:11;;;;;;;;;;;11.90;99.90;;;;;;8343475;28;19967;-73
2021/10/22 11:41:13;;;;;;;;;;;12.30;99.90;;;;;;8346585;28;19921;-73
2021/10/22 11:45:18;;;;;;;;;;;12.60;99.90;;;;;;8350742;28;20390;-73
2021/10/22 11:49:27;;;;;;;;;;;12.80;99.90;;;;;;8349931;28;19925;-73
2021/10/22 11:53:30;;;;;;;;;;;12.90;99.90;;;;;;8372408;28;20304;-73
2021/10/22 11:57:33;;;;;;;;;;;13.00;99.90;;;;;;8351012;28;19929;-73
2021/10/22 12:01:38;;;;;;;;;;;13.10;99.90;;;;;;8358701;28;19928;-73
2021/10/22 12:05:43;;;;;;;;;;;13.20;99.90;;;;;;8355086;28;19925;-72
2021/10/22 12:09:45;;;;;;;;;;;13.30;99.90;;;;;;8362809;28;19981;-73
2021/10/22 12:13:47;;;;;;;;;;;13.40;99.90;;;;;;8351086;28;19925;-73
2021/10/22 12:17:53;;;;;;;;;;;13.50;99.90;;;;;;8349728;28;19924;-73
2021/10/22 12:21:54;;;;;;;;;;;13.40;99.90;;;;;;8342414;28;20320;-73
2021/10/22 12:25:56;;;;;;;;;;;13.50;99.90;;;;;;8351097;28;19943;-73
2021/10/22 12:29:59;;;;;;;;;;;13.50;99.90;;;;;;8348125;28;19944;-73
2021/10/22 12:34:08;;;;;;;;;;;13.40;99.90;;;;;;8359597;28;20169;-73
2021/10/22 12:38:12;;;;;;;;;;;13.30;99.90;;;;;;8359202;28;20368;-72
2021/10/22 12:42:21;;;;;;;;;;;13.10;99.90;;;;;;8355534;28;19968;-72
2021/10/22 12:46:23;;;;;;;;;;;12.90;99.90;;;;;;8342225;28;20299;-73
2021/10/22 12:50:27;;;;;;;;;;;12.70;99.90;;;;;;8360920;28;19920;-73
2021/10/22 12:54:28;;;;;;;;;;;12.50;99.90;;;;;;8349931;28;20376;-73
2021/10/22 12:58:31;;;;;;;;;;;12.40;99.90;;;;;;8349336;28;19966;-73
2021/10/22 13:02:33;;;;;;;;;;;12.30;99.90;;;;;;8342146;28;19952;-73
2021/10/22 13:06:50;;;;;;;;;;;12.20;99.90;;;;;;8382977;28;19932;-73
2021/10/22 13:11:23;;;;;;;;;;;12.10;99.90;;;;;;8356060;28;20387;-73
2021/10/22 13:15:47;;;;;;;;;;;12.10;99.90;;;;;;8347926;28;19925;-73
2021/10/22 13:24:07;;;;;;;;;;;12.30;99.90;;;;;;8342474;28;19986;-73
2021/10/22 13:28:09;;;;;;;;;;;12.30;99.90;;;;;;8345210;28;20348;-73
2021/10/22 13:32:11;;;;;;;;;;;12.30;99.90;;;;;;8349619;28;19925;-73
2021/10/22 13:36:15;;;;;;;;;;;12.30;99.90;;;;;;8346139;28;19940;-72
2021/10/22 13:40:16;;;;;;;;;;;12.10;99.90;;;;;;8337176;28;19921;-72
2021/10/22 13:44:20;;;;;;;;;;;11.80;99.90;;;;;;8340198;28;21300;-72
2021/10/22 13:48:22;;;;;;;;;;;11.60;99.90;;;;;;8353433;28;19932;-72
2021/10/22 13:52:23;;;;;;;;;;;11.50;99.90;;;;;;8346514;28;20414;-73
2021/10/22 13:56:25;;;;;;;;;;;11.30;99.90;;;;;;8382359;28;20368;-73
2021/10/22 14:00:37;;;;;;;;;;;11.20;99.90;;;;;;8373594;28;20380;-73
2021/10/22 14:04:39;;;;;;;;;;;11.10;99.90;;;;;;8354140;28;19925;-73
2021/10/22 14:08:41;;;;;;;;;;;11.00;99.90;;;;;;8347251;28;19932;-72
2021/10/22 14:13:11;;;;;;;;;;;11.00;99.90;;;;;;8349063;28;19921;-72
2021/10/22 14:29:58;;;;;;;;;;;11.00;99.90;;;;;;8355489;28;19921;-73
2021/10/22 14:34:00;;;;;;;;;;;10.90;99.90;;;;;;8352830;28;20011;-73
2021/10/22 14:38:01;;;;;;;;;;;10.90;99.90;;;;;;8347257;28;19924;-72
2021/10/22 14:42:06;;;;;;;;;;;10.90;99.90;;;;;;8352768;28;20376;-73
2021/10/22 14:50:17;;;;;;;;;;;10.80;99.90;;;;;;8336113;28;19978;-72
2021/10/22 14:54:29;;;;;;;;;;;10.80;99.90;;;;;;8352094;28;19968;-72
2021/10/22 14:58:32;;;;;;;;;;;10.80;99.90;;;;;;8346200;28;19921;-72
2021/10/22 15:02:34;;;;;;;;;;;10.80;99.90;;;;;;8374148;28;19924;-72
2021/10/22 15:06:35;;;;;;;;;;;10.90;99.90;;;;;;8356163;28;19928;-73
2021/10/22 15:10:37;;;;;;;;;;;10.90;99.90;;;;;;8357972;28;20337;-72
2021/10/22 15:14:39;;;;;;;;;;;10.90;99.90;;;;;;8361377;28;19936;-72
2021/10/22 15:18:41;;;;;;;;;;;10.90;99.90;;;;;;8350260;28;20197;-72
2021/10/22 15:22:43;;;;;;;;;;;10.90;99.90;;;;;;8354957;28;20214;-73
2021/10/22 15:26:45;;;;;;;;;;;10.90;99.90;;;;;;8368131;28;19921;-72
2021/10/22 15:30:47;;;;;;;;;;;10.90;99.90;;;;;;8327016;28;19929;-72
2021/10/22 15:34:49;;;;;;;;;;;10.90;99.90;;;;;;8324469;28;20024;-72
2021/10/22 15:38:50;;;;;;;;;;;10.90;99.90;;;;;;8325543;28;19925;-72
2021/10/22 15:42:52;;;;;;;;;;;10.90;99.90;;;;;;8324758;28;20332;-72
2021/10/22 15:47:00;;;;;;;;;;;11.00;99.90;;;;;;8323579;28;19939;-72
2021/10/22 15:51:02;;;;;;;;;;;11.00;99.90;;;;;;8323670;28;19978;-72
2021/10/22 15:55:04;;;;;;;;;;;11.00;99.90;;;;;;8324468;28;19932;-72
2021/10/22 15:59:08;;;;;;;;;;;11.10;99.90;;;;;;8331104;28;19929;-72
2021/10/22 16:03:12;;;;;;;;;;;11.00;99.90;;;;;;8323462;28;19921;-72
2021/10/22 16:11:51;;;;;;;;;;;11.00;99.90;;;;;;8348195;28;19924;-72
2021/10/22 16:16:18;;;;;;;;;;;11.00;99.90;;;;;;8324710;28;19975;-72
2021/10/22 16:20:19;;;;;;;;;;;11.00;99.90;;;;;;8322406;28;19921;-72
2021/10/22 16:24:21;;;;;;;;;;;10.90;99.90;;;;;;8322387;28;19936;-72
2021/10/22 16:28:23;;;;;;;;;;;10.90;99.90;;;;;;8323341;28;19925;-72
2021/10/22 16:32:27;;;;;;;;;;;10.90;99.90;;;;;;8324523;28;19921;-73
2021/10/22 16:36:29;;;;;;;;;;;10.80;99.90;;;;;;8323391;28;19925;-72
2021/10/22 16:40:30;;;;;;;;;;;10.70;99.90;;;;;;8321201;28;19931;-72
2021/10/22 16:44:33;;;;;;;;;;;10.70;99.90;;;;;;8328760;28;19924;-72
2021/10/22 16:48:36;;;;;;;;;;;10.60;99.90;;;;;;8322986;28;19929;-72
2021/10/22 16:52:38;;;;;;;;;;;10.60;99.90;;;;;;8330799;28;19970;-72
2021/10/22 16:56:39;;;;;;;;;;;10.50;99.90;;;;;;8322321;28;19986;-72
2021/10/22 17:00:41;;;;;;;;;;;10.40;99.90;;;;;;8323885;28;20357;-72
2021/10/22 17:04:45;;;;;;;;;;;10.40;99.90;;;;;;8319620;28;19956;-72
2021/10/22 17:08:47;;;;;;;;;;;10.40;99.90;;;;;;8322987;28;20368;-72
2021/10/22 17:12:49;;;;;;;;;;;10.30;99.90;;;;;;8322787;28;20196;-72
2021/10/22 17:16:50;;;;;;;;;;;10.20;99.90;;;;;;8352406;28;19921;-72
2021/10/22 17:20:52;;;;;;;;;;;10.20;99.90;;;;;;8321782;28;20312;-72
2021/10/22 17:24:54;;;;;;;;;;;10.20;99.90;;;;;;8321075;28;19925;-72
2021/10/22 17:28:56;;;;;;;;;;;10.10;99.90;;;;;;8322442;28;19924;-72
2021/10/22 17:32:59;;;;;;;;;;;10.00;99.90;;;;;;8337494;28;19967;-72
2021/10/22 17:37:00;;;;;;;;;;;10.00;99.90;;;;;;8321153;28;19921;-72
2021/10/22 17:41:03;;;;;;;;;;;10.00;99.90;;;;;;8320726;28;19921;-72
2021/10/22 17:45:05;;;;;;;;;;;9.90;99.90;;;;;;8321247;28;19924;-72
2021/10/22 17:49:32;;;;;;;;;;;9.90;99.90;;;;;;8320513;28;19924;-72
2021/10/22 17:53:35;;;;;;;;;;;9.80;99.90;;;;;;8352933;28;19928;-72
2021/10/22 17:57:37;;;;;;;;;;;9.70;99.90;;;;;;8320103;28;20072;-72
2021/10/22 18:01:39;;;;;;;;;;;9.60;99.90;;;;;;8321155;28;19921;-72
2021/10/22 18:05:41;;;;;;;;;;;9.60;99.90;;;;;;8319085;28;19932;-72
2021/10/22 18:09:43;;;;;;;;;;;9.50;99.90;;;;;;8320459;28;19921;-72
2021/10/22 18:13:45;;;;;;;;;;;9.40;99.90;;;;;;8320133;28;19925;-72
2021/10/22 18:17:46;;;;;;;;;;;9.40;99.90;;;;;;8325638;28;19921;-72
2021/10/22 18:21:49;;;;;;;;;;;9.30;99.90;;;;;;8319439;28;19929;-73
2021/10/22 18:25:52;;;;;;;;;;;9.30;99.90;;;;;;8318636;28;19928;-72
2021/10/22 18:29:58;;;;;;;;;;;9.10;99.90;;;;;;8353493;28;19921;-72
2021/10/22 18:34:02;;;;;;;;;;;9.00;99.90;;;;;;8317915;28;20369;-72
2021/10/22 18:38:04;;;;;;;;;;;9.00;99.90;;;;;;8319995;28;20049;-72
2021/10/22 18:42:06;;;;;;;;;;;8.90;99.90;;;;;;8320207;28;20365;-72
2021/10/22 18:46:09;;;;;;;5.20;1.00;;;8.90;99.90;;;;;;8351091;28;20374;-72
2021/10/22 18:50:12;;;;;;;;;;;8.80;99.90;;;;;;8319579;28;19925;-72
2021/10/22 18:54:13;;;;;;;;;;;8.70;99.90;;;;;;8351018;28;20010;-72
2021/10/22 18:58:15;;;;;;;;;;;8.70;99.90;;;;;;8320690;28;19948;-72
2021/10/22 19:02:17;;;;;;;;;;;8.60;99.90;;;;;;8319713;28;20035;-72
2021/10/22 19:10:30;;;;;;;;;;;8.50;99.90;;;;;;8319847;28;19951;-72
2021/10/22 19:14:32;;;;;;;;;;;8.50;99.90;;;;;;8350872;28;19948;-72
2021/10/22 19:18:34;;;;;;;;;;;8.50;99.90;;;;;;8319590;28;19925;-72
2021/10/22 19:22:36;;;;;;;;;;;8.50;99.90;;;;;;8323484;28;20280;-72
2021/10/22 19:26:42;;;;;;;;;;;8.40;99.90;;;;;;8320096;28;19921;-71
2021/10/22 19:30:44;;;;;;;;;;;8.50;99.90;;;;;;8318338;28;19925;-72
2021/10/22 19:34:58;;;;;;;;;;;8.40;99.90;;;;;;8317206;28;19936;-72
2021/10/22 19:39:00;;;;;;;;;;;8.40;99.90;;;;;;8323424;28;19931;-72
2021/10/22 19:43:02;;;;;;;;;;;8.40;99.90;;;;;;8325130;28;19921;-72
2021/10/22 19:47:04;;;;;;;;;;;8.40;99.90;;;;;;8325470;28;19928;-72
2021/10/22 19:51:08;;;;;;;;;;;8.40;99.90;;;;;;8327837;28;19951;-72
2021/10/22 19:55:09;;;;;;;;;;;8.40;99.90;;;;;;8324232;28;19921;-72
2021/10/22 19:59:12;;;;;;;;;;;8.50;99.90;;;;;;8340267;28;20273;-72
2021/10/22 20:03:15;;;;;;;;;;;8.40;99.90;;;;;;8325982;28;19929;-72
2021/10/22 20:07:17;;;;;;;;;;;8.40;99.90;;;;;;8323318;28;20284;-72
2021/10/22 20:11:19;;;;;;;;;;;8.40;99.90;;;;;;8322361;28;20059;-73
2021/10/22 20:15:48;;;;;;;;;;;8.30;99.90;;;;;;8322908;28;19925;-72
2021/10/22 20:19:50;;;;;;;;;;;8.20;99.90;;;;;;8323265;28;19924;-72
2021/10/22 20:23:53;;;;;;;;;;;8.20;99.90;;;;;;8356838;28;19924;-72
2021/10/22 20:27:54;;;;;;;;;;;8.10;99.90;;;;;;8354962;28;20278;-72
2021/10/22 20:31:56;;;;;;;;;;;8.10;99.90;;;;;;8323490;28;20437;-72
2021/10/22 20:35:58;;;;;;;;;;;8.10;99.90;;;;;;8322558;28;19920;-73
2021/10/22 20:39:59;;;;;;;;;;;8.10;99.90;;;;;;8322739;28;19928;-72
2021/10/22 20:44:02;;;;;;;;;;;8.10;99.90;;;;;;8323704;28;20007;-72
2021/10/22 20:48:07;;;;;;;;;;;8.10;99.90;;;;;;8323241;28;19924;-72
2021/10/22 20:56:37;;;;;;;;;;;8.00;99.90;;;;;;8322418;28;20390;-73
2021/10/22 21:00:38;;;;;;;;;;;8.00;99.90;;;;;;8324723;28;20368;-72
2021/10/22 21:04:40;;;;;;;;;;;7.90;99.90;;;;;;8346389;28;19932;-72
2021/10/22 21:08:42;;;;;;;;;;;7.90;99.90;;;;;;8354968;28;19920;-72
2021/10/22 21:12:47;;;;;;;;;;;7.80;99.90;;;;;;8355403;28;19920;-73
2021/10/22 21:16:49;;;;;;;;;;;7.80;99.90;;;;;;8356755;28;19924;-72
2021/10/22 21:25:55;;;;;;;;;;;7.70;99.90;;;;;;8347530;28;19971;-72
2021/10/22 21:30:00;;;;;;;;;;;7.60;99.90;;;;;;8346428;28;19925;-72
2021/10/22 21:34:02;;;;;;;;;;;7.60;99.90;;;;;;8348480;28;20337;-72
2021/10/22 21:38:03;;;;;;;;;;;7.50;99.90;;;;;;8353236;28;19921;-72
2021/10/22 21:42:05;;;;;;;;;;;7.50;99.90;;;;;;8338912;28;19921;-72
2021/10/22 21:46:07;;;;;;;;;;;7.40;99.90;;;;;;8345717;28;20284;-72
2021/10/22 21:50:09;;;;;;;;;;;7.30;99.90;;;;;;8367712;28;19920;-72
2021/10/22 21:54:10;;;;;;;;;;;7.30;99.90;;;;;;8350545;28;19936;-72
2021/10/22 21:58:21;;;;;;;;;;;7.20;99.90;;;;;;8351379;28;19927;-72
2021/10/22 22:02:23;;;;;;;;;;;7.20;99.90;;;;;;8357689;28;19920;-72
2021/10/22 22:06:25;;;;;;;;;;;7.10;99.90;;;;;;8347371;28;19920;-72
2021/10/22 22:10:27;;;;;;;;;;;7.10;99.90;;;;;;8348094;28;19924;-72
2021/10/22 22:14:29;;;;;;;;;;;7.00;99.90;;;;;;8347952;28;19921;-72
2021/10/22 22:18:31;;;;;;;;;;;6.90;99.90;;;;;;8342679;28;20288;-73
2021/10/22 22:22:33;;;;;;;;;;;6.90;99.90;;;;;;8337973;28;20109;-72
2021/10/22 22:26:35;;;;;;;;;;;6.80;99.90;;;;;;8353065;28;19940;-71
2021/10/22 22:30:36;;;;;;;;;;;6.70;99.90;;;;;;8372826;28;20337;-72
2021/10/22 22:34:56;;;;;;;;;;;6.70;99.90;;;;;;8357503;28;19928;-72
2021/10/22 22:38:58;;;;;;;;;;;6.70;99.90;;;;;;8338974;28;20612;-72
2021/10/22 22:43:00;;;;;;;;;;;6.60;99.90;;;;;;8350347;28;20336;-72
2021/10/22 22:47:02;;;;;;;;;;;6.60;99.90;;;;;;8359078;28;20067;-72
2021/10/22 22:51:04;;;;;;;;;;;6.50;99.90;;;;;;8340939;28;19944;-72
2021/10/22 22:55:06;;;;;;;;;;;6.50;99.90;;;;;;8379813;28;19927;-72
2021/10/22 22:59:08;;;;;;;;;;;6.40;99.90;;;;;;8346883;28;19929;-72
2021/10/22 23:03:10;;;;;;;6.47;3.10;;;6.40;99.90;;;;;;8374798;28;19925;-72
2021/10/22 23:07:12;;;;;;;8.98;2.53;;;6.40;99.90;;;;;;8353845;28;20049;-73
2021/10/22 23:11:14;;;;;;;7.30;2.22;;;6.30;99.90;;;;;;8350997;28;20060;-72
2021/10/22 23:15:28;;;;;;;12.60;2.35;;;6.20;99.90;;;;;;8364445;28;20102;-72
2021/10/22 23:19:29;;;;;;;5.22;2.17;;;6.20;99.90;;;;;;8349814;28;20045;-72
2021/10/22 23:23:31;;;;;;;6.57;2.10;;;6.20;99.90;;;;;;8345493;28;20052;-72
2021/10/22 23:27:33;;;;;;;6.88;2.65;;;6.20;99.90;;;;;;8354630;28;20132;-72
2021/10/22 23:31:34;;;;;;;6.93;2.75;;;6.20;99.90;;;;;;8355614;28;20049;-72
2021/10/22 23:35:36;;;;;;;6.55;3.53;;;6.20;99.90;;;;;;8351374;28;20522;-72
2021/10/22 23:39:38;;;;;;;7.57;3.78;;;6.20;99.90;;;;;;8356562;28;20049;-72
2021/10/22 23:43:40;;;;;;;10.18;3.03;;;6.10;99.90;;;;;;8356340;28;20400;-72
2021/10/22 23:47:43;;;;;;;5.47;2.72;;;6.00;99.90;;;;;;8353392;28;20057;-72
2021/10/22 23:51:44;;;;;;;4.95;2.20;;;6.10;99.90;;;;;;8358943;28;20510;-73
2021/10/22 23:55:48;;;;;;;5.68;2.50;;;6.00;99.90;;;;;;8360697;28;20064;-72